createdAt,value
2018-05-09T00:01:07.821Z,40.63
2018-05-09T00:04:11.105Z,41.22
2018-05-09T00:07:14.495Z,40.88
2018-05-09T00:10:17.864Z,40.59
2018-05-09T00:13:21.116Z,40.73
2018-05-09T00:16:24.282Z,41.10
2018-05-09T00:19:27.491Z,40.82
2018-05-09T00:22:30.794Z,41.34
2018-05-09T00:25:34.175Z,40.74
2018-05-09T00:28:37.676Z,41.48
2018-05-09T00:31:40.980Z,41.38
2018-05-09T00:34:44.395Z,41.38
2018-05-09T00:37:47.791Z,41.51
2018-05-09T00:40:52.095Z,41.09
2018-05-09T00:43:55.604Z,41.13
2018-05-09T00:46:59.013Z,40.96
2018-05-09T00:50:02.347Z,41.13
2018-05-09T00:53:06.372Z,41.09
2018-05-09T00:56:09.781Z,41.31
2018-05-09T00:59:14.103Z,41.90
2018-05-09T01:02:17.443Z,41.87
2018-05-09T01:05:20.849Z,41.74
2018-05-09T01:08:24.265Z,41.68
2018-05-09T01:11:27.679Z,41.95
2018-05-09T01:14:30.872Z,42.35
2018-05-09T01:17:34.113Z,42.14
2018-05-09T01:20:38.969Z,42.43
2018-05-09T01:23:42.315Z,41.74
2018-05-09T01:26:45.723Z,42.52
2018-05-09T01:29:49.052Z,42.46
2018-05-09T01:32:52.368Z,42.55
2018-05-09T01:35:55.711Z,42.71
2018-05-09T01:39:00.142Z,42.52
2018-05-09T01:42:03.445Z,42.54
2018-05-09T01:45:07.587Z,42.77
2018-05-09T01:48:10.834Z,43.04
2018-05-09T01:51:14.158Z,43.20
2018-05-09T01:54:17.468Z,42.98
2018-05-09T01:57:20.908Z,42.93
2018-05-09T02:00:24.276Z,43.23
2018-05-09T02:03:27.704Z,43.33
2018-05-09T02:06:32.089Z,43.45
2018-05-09T02:09:36.495Z,43.67
2018-05-09T02:12:39.841Z,43.37
2018-05-09T02:15:43.289Z,43.75
2018-05-09T02:18:46.672Z,43.93
2018-05-09T02:21:50.099Z,44.47
2018-05-09T02:24:53.468Z,44.55
2018-05-09T02:27:56.840Z,44.42
2018-05-09T02:31:01.288Z,44.60
2018-05-09T02:34:06.462Z,44.66
2018-05-09T02:37:10.783Z,44.78
2018-05-09T02:40:14.360Z,44.38
2018-05-09T02:43:18.519Z,45.01
2018-05-09T02:46:21.926Z,45.10
2018-05-09T02:49:25.337Z,44.94
2018-05-09T02:52:28.715Z,45.48
2018-05-09T02:55:32.109Z,45.02
2018-05-09T02:58:36.123Z,44.79
2018-05-09T03:01:39.485Z,44.97
2018-05-09T03:04:42.743Z,45.21
2018-05-09T03:07:45.964Z,45.66
2018-05-09T03:10:50.397Z,45.50
2018-05-09T03:13:53.753Z,45.66
2018-05-09T03:16:57.161Z,45.87
2018-05-09T03:20:01.569Z,46.06
2018-05-09T03:23:04.964Z,46.11
2018-05-09T03:26:08.656Z,45.86
2018-05-09T03:29:12.001Z,45.77
2018-05-09T03:32:15.263Z,46.13
2018-05-09T03:35:18.660Z,46.34
2018-05-09T03:38:22.995Z,46.70
2018-05-09T03:41:26.592Z,46.89
2018-05-09T03:44:29.978Z,46.40
2018-05-09T03:47:33.485Z,47.33
2018-05-09T03:50:37.918Z,47.47
2018-05-09T03:53:41.422Z,47.83
2018-05-09T03:56:44.924Z,48.20
2018-05-09T03:59:48.228Z,48.07
2018-05-09T04:04:09.236Z,48.52
2018-05-09T04:08:28.735Z,48.69
2018-05-09T04:11:32.223Z,48.12
2018-05-09T04:14:36.132Z,48.76
2018-05-09T04:17:39.440Z,48.22
2018-05-09T04:20:44.924Z,48.64
2018-05-09T04:23:48.265Z,48.72
2018-05-09T04:26:51.656Z,49.37
2018-05-09T04:29:55.071Z,48.87
2018-05-09T04:32:58.439Z,49.75
2018-05-09T04:36:01.674Z,49.48
2018-05-09T04:39:05.282Z,49.01
2018-05-09T04:42:08.666Z,49.26
2018-05-09T04:45:11.991Z,49.42
2018-05-09T04:48:15.454Z,49.83
2018-05-09T04:51:18.824Z,50.00
2018-05-09T04:54:22.057Z,49.37
2018-05-09T04:57:25.321Z,49.17
2018-05-09T05:00:28.686Z,49.86
2018-05-09T05:03:31.995Z,50.60
2018-05-09T05:06:37.519Z,50.88
2018-05-09T05:09:40.830Z,53.18
2018-05-09T05:12:44.094Z,53.79
2018-05-09T05:15:47.455Z,52.61
2018-05-09T05:18:50.827Z,53.05
2018-05-09T05:21:54.888Z,52.33
2018-05-09T05:24:58.151Z,52.20
2018-05-09T05:28:01.623Z,52.17
2018-05-09T05:31:04.940Z,52.80
2018-05-09T05:34:08.386Z,53.91
2018-05-09T05:37:11.755Z,54.18
2018-05-09T05:40:15.036Z,53.71
2018-05-09T05:43:19.349Z,53.09
2018-05-09T05:46:23.652Z,53.02
2018-05-09T05:49:27.049Z,52.29
2018-05-09T05:52:30.289Z,51.85
2018-05-09T05:55:33.665Z,52.08
2018-05-09T05:58:36.912Z,52.33
2018-05-09T06:01:40.185Z,52.32
2018-05-09T06:04:43.569Z,53.68
2018-05-09T06:07:46.877Z,53.53
2018-05-09T06:10:50.280Z,52.75
2018-05-09T06:13:54.708Z,52.16
2018-05-09T06:16:58.028Z,52.49
2018-05-09T06:20:01.311Z,51.99
2018-05-09T06:23:04.727Z,52.21
2018-05-09T06:26:08.091Z,52.30
2018-05-09T06:29:11.449Z,52.26
2018-05-09T06:32:14.773Z,51.11
2018-05-09T06:35:17.986Z,51.64
2018-05-09T06:38:22.292Z,51.69
2018-05-09T06:41:25.917Z,50.76
2018-05-09T06:44:29.184Z,49.79
2018-05-09T06:47:32.452Z,48.19
2018-05-09T06:50:35.780Z,48.78
2018-05-09T06:53:39.091Z,48.35
2018-05-09T06:56:42.401Z,49.11
2018-05-09T06:59:45.813Z,47.42
2018-05-09T07:02:49.187Z,47.79
2018-05-09T07:05:52.531Z,47.08
2018-05-09T07:08:56.598Z,46.52
2018-05-09T07:11:59.844Z,45.11
2018-05-09T07:15:03.210Z,45.60
2018-05-09T07:18:06.591Z,45.25
2018-05-09T07:21:09.895Z,45.37
2018-05-09T07:24:13.203Z,44.65
2018-05-09T07:27:16.589Z,44.48
2018-05-09T07:30:19.933Z,45.05
2018-05-09T07:33:23.761Z,44.92
2018-05-09T07:36:26.909Z,44.74
2018-05-09T07:39:30.209Z,44.07
2018-05-09T07:42:33.480Z,44.87
2018-05-09T07:45:36.903Z,44.20
2018-05-09T07:48:40.127Z,44.10
2018-05-09T07:51:43.391Z,43.96
2018-05-09T07:54:46.798Z,43.61
2018-05-09T07:57:50.197Z,43.50
2018-05-09T08:00:54.491Z,42.60
2018-05-09T08:03:57.776Z,42.10
2018-05-09T08:07:01.009Z,42.19
2018-05-09T08:10:04.296Z,42.17
2018-05-09T08:13:07.650Z,42.09
2018-05-09T08:16:10.997Z,42.28
2018-05-09T08:19:14.156Z,41.80
2018-05-09T08:22:17.542Z,43.37
2018-05-09T08:25:21.253Z,42.57
2018-05-09T08:28:25.202Z,42.61
2018-05-09T08:31:28.597Z,42.24
2018-05-09T08:34:31.956Z,41.63
2018-05-09T08:37:35.216Z,41.76
2018-05-09T08:40:38.590Z,41.23
2018-05-09T08:43:42.063Z,41.17
2018-05-09T08:46:45.177Z,41.23
2018-05-09T08:49:48.607Z,41.21
2018-05-09T08:52:51.999Z,41.35
2018-05-09T08:55:56.171Z,41.05
2018-05-09T08:59:00.012Z,41.61
2018-05-09T09:02:03.261Z,41.13
2018-05-09T09:05:06.565Z,41.38
2018-05-09T09:08:09.900Z,42.18
2018-05-09T09:11:13.216Z,40.97
2018-05-09T09:14:17.519Z,40.91
2018-05-09T09:17:20.960Z,41.18
2018-05-09T09:20:26.278Z,40.89
2018-05-09T09:23:29.680Z,41.03
2018-05-09T09:26:33.063Z,40.89
2018-05-09T09:29:36.377Z,40.83
2018-05-09T09:32:40.628Z,40.73
2018-05-09T09:35:44.002Z,39.98
2018-05-09T09:38:47.179Z,40.47
2018-05-09T09:41:51.552Z,39.58
2018-05-09T09:44:55.616Z,38.74
2018-05-09T09:47:58.854Z,39.29
2018-05-09T09:51:02.105Z,38.73
2018-05-09T09:54:05.551Z,38.74
2018-05-09T09:57:08.868Z,38.16
2018-05-09T10:00:12.216Z,38.60
2018-05-09T10:03:15.597Z,37.96
2018-05-09T10:06:18.788Z,36.82
2018-05-09T10:09:22.055Z,37.05
2018-05-09T10:12:26.664Z,35.01
2018-05-09T10:15:29.998Z,36.20
2018-05-09T10:18:33.270Z,35.15
2018-05-09T10:21:36.512Z,35.55
2018-05-09T10:24:39.803Z,34.88
2018-05-09T10:27:43.228Z,35.26
2018-05-09T10:30:46.611Z,34.78
2018-05-09T10:33:49.922Z,35.51
2018-05-09T10:36:53.348Z,33.47
2018-05-09T10:39:57.949Z,33.89
2018-05-09T10:43:01.228Z,33.11
2018-05-09T10:46:04.662Z,33.83
2018-05-09T10:49:08.048Z,33.65
2018-05-09T10:52:11.760Z,35.69
2018-05-09T10:55:15.037Z,34.65
2018-05-09T10:58:18.365Z,34.10
2018-05-09T11:01:21.764Z,33.83
2018-05-09T11:04:25.297Z,34.15
2018-05-09T11:07:28.682Z,34.40
2018-05-09T11:10:31.985Z,33.92
2018-05-09T11:13:35.382Z,33.20
2018-05-09T11:16:39.831Z,33.71
2018-05-09T11:19:43.166Z,33.82
2018-05-09T11:22:46.618Z,33.49
2018-05-09T11:25:50.952Z,32.94
2018-05-09T11:28:54.280Z,33.77
2018-05-09T11:32:03.034Z,32.47
2018-05-09T11:35:06.442Z,32.83
2018-05-09T11:38:09.713Z,33.19
2018-05-09T11:41:13.013Z,32.95
2018-05-09T11:44:16.304Z,33.21
2018-05-09T11:47:19.796Z,32.47
2018-05-09T11:50:23.124Z,33.75
2018-05-09T11:53:27.260Z,34.72
2018-05-09T11:56:30.574Z,34.37
2018-05-09T11:59:34.911Z,33.67
2018-05-09T12:02:38.557Z,33.57
2018-05-09T12:05:41.832Z,34.10
2018-05-09T12:08:45.117Z,32.89
2018-05-09T12:11:48.511Z,33.06
2018-05-09T12:14:51.716Z,33.46
2018-05-09T12:17:55.819Z,33.45
2018-05-09T12:20:59.047Z,32.99
2018-05-09T12:24:02.341Z,33.54
2018-05-09T12:27:05.597Z,32.93
2018-05-09T12:30:08.853Z,33.23
2018-05-09T12:33:12.300Z,32.25
2018-05-09T12:36:15.667Z,31.41
2018-05-09T12:39:21.179Z,31.30
2018-05-09T12:42:24.527Z,30.66
2018-05-09T12:45:28.548Z,31.02
2018-05-09T12:48:31.999Z,31.89
2018-05-09T12:51:35.264Z,32.40
2018-05-09T12:54:38.634Z,31.14
2018-05-09T12:57:42.692Z,31.62
2018-05-09T13:00:46.097Z,30.04
2018-05-09T13:03:49.426Z,29.75
2018-05-09T13:06:52.699Z,30.06
2018-05-09T13:09:56.702Z,29.43
2018-05-09T13:13:00.043Z,29.33
2018-05-09T13:16:03.432Z,28.48
2018-05-09T13:19:06.827Z,28.16
2018-05-09T13:22:10.225Z,29.13
2018-05-09T13:25:13.719Z,29.29
2018-05-09T13:28:17.111Z,29.02
2018-05-09T13:31:20.504Z,29.56
2018-05-09T13:34:23.876Z,28.72
2018-05-09T13:37:28.017Z,29.28
2018-05-09T13:40:31.369Z,27.76
2018-05-09T13:43:34.771Z,27.34
2018-05-09T13:46:38.123Z,27.75
2018-05-09T13:49:41.644Z,26.04
2018-05-09T13:52:44.955Z,25.69
2018-05-09T13:55:48.206Z,25.59
2018-05-09T13:58:51.636Z,26.34
2018-05-09T14:01:54.960Z,25.76
2018-05-09T14:04:58.368Z,25.08
2018-05-09T14:08:01.681Z,24.04
2018-05-09T14:11:05.032Z,24.46
2018-05-09T14:14:08.356Z,24.35
2018-05-09T14:17:11.688Z,23.72
2018-05-09T14:20:15.031Z,24.55
2018-05-09T14:23:18.334Z,24.15
2018-05-09T14:26:21.786Z,24.84
2018-05-09T14:29:25.108Z,25.05
2018-05-09T14:32:29.523Z,24.03
2018-05-09T14:35:32.898Z,22.95
2018-05-09T14:38:36.231Z,21.38
2018-05-09T14:41:39.423Z,23.49
2018-05-09T14:44:42.665Z,24.33
2018-05-09T14:47:46.067Z,24.36
2018-05-09T14:50:49.445Z,23.05
2018-05-09T14:53:52.842Z,23.01
2018-05-09T14:56:57.266Z,23.80
2018-05-09T15:00:00.592Z,23.83
2018-05-09T15:03:03.976Z,24.69
2018-05-09T15:06:07.353Z,24.15
2018-05-09T15:09:10.789Z,24.51
2018-05-09T15:12:14.096Z,24.23
2018-05-09T15:15:17.431Z,24.58
2018-05-09T15:18:20.955Z,25.47
2018-05-09T15:21:25.360Z,24.53
2018-05-09T15:24:29.551Z,24.60
2018-05-09T15:27:32.835Z,24.11
2018-05-09T15:30:36.013Z,24.11
2018-05-09T15:33:39.350Z,24.04
2018-05-09T15:36:42.631Z,24.66
2018-05-09T15:39:45.966Z,24.45
2018-05-09T15:42:49.284Z,23.70
2018-05-09T15:45:52.699Z,22.13
2018-05-09T15:48:55.947Z,22.70
2018-05-09T15:52:00.747Z,22.49
2018-05-09T15:55:03.957Z,22.57
2018-05-09T15:58:07.333Z,22.96
2018-05-09T16:01:10.679Z,23.13
2018-05-09T16:04:13.997Z,23.15
2018-05-09T16:07:17.432Z,23.36
2018-05-09T16:10:20.950Z,23.01
2018-05-09T16:13:24.316Z,22.67
2018-05-09T16:16:28.365Z,22.81
2018-05-09T16:19:31.699Z,22.00
2018-05-09T16:22:35.033Z,23.34
2018-05-09T16:25:38.296Z,23.21
2018-05-09T16:28:41.619Z,23.24
2018-05-09T16:31:45.034Z,24.25
2018-05-09T16:34:48.364Z,24.28
2018-05-09T16:37:51.703Z,24.57
2018-05-09T16:40:55.101Z,22.80
2018-05-09T16:43:59.885Z,23.17
2018-05-09T16:47:03.243Z,22.90
2018-05-09T16:50:06.605Z,22.56
2018-05-09T16:53:10.011Z,22.62
2018-05-09T16:56:13.203Z,22.95
2018-05-09T16:59:16.511Z,22.51
2018-05-09T17:02:19.898Z,22.68
2018-05-09T17:05:23.151Z,22.64
2018-05-09T17:08:27.084Z,23.30
2018-05-09T17:11:30.440Z,24.00
2018-05-09T17:14:33.805Z,23.90
2018-05-09T17:17:36.983Z,24.16
2018-05-09T17:20:40.439Z,24.02
2018-05-09T17:23:43.836Z,23.87
2018-05-09T17:26:47.108Z,24.11
2018-05-09T17:29:50.502Z,24.08
2018-05-09T17:32:53.847Z,24.15
2018-05-09T17:35:57.681Z,24.46
2018-05-09T17:39:01.039Z,25.22
2018-05-09T17:42:05.075Z,25.32
2018-05-09T17:45:09.456Z,25.52
2018-05-09T17:48:13.755Z,25.33
2018-05-09T17:51:17.182Z,25.79
2018-05-09T17:54:20.382Z,25.60
2018-05-09T17:57:23.797Z,25.54
2018-05-09T18:00:27.647Z,25.79
2018-05-09T18:03:30.908Z,25.81
2018-05-09T18:06:34.177Z,26.53
2018-05-09T18:09:37.547Z,26.47
2018-05-09T18:12:41.044Z,27.07
2018-05-09T18:15:44.376Z,27.28
2018-05-09T18:18:47.806Z,27.12
2018-05-09T18:21:51.047Z,27.61
2018-05-09T18:24:54.375Z,28.02
2018-05-09T18:27:58.736Z,28.64
2018-05-09T18:31:02.112Z,29.04
2018-05-09T18:34:06.529Z,29.18
2018-05-09T18:37:09.983Z,29.59
2018-05-09T18:40:13.372Z,30.62
2018-05-09T18:43:17.709Z,31.20
2018-05-09T18:46:21.082Z,31.89
2018-05-09T18:49:24.352Z,32.53
2018-05-09T18:52:28.686Z,33.07
2018-05-09T18:55:32.120Z,33.79
2018-05-09T18:58:35.279Z,34.56
2018-05-09T19:01:38.588Z,34.86
2018-05-09T19:04:41.964Z,35.28
2018-05-09T19:07:45.362Z,34.49
2018-05-09T19:10:48.683Z,34.98
2018-05-09T19:13:51.958Z,34.48
2018-05-09T19:16:56.944Z,35.21
2018-05-09T19:20:00.364Z,35.84
2018-05-09T19:23:03.906Z,37.58
2018-05-09T19:26:10.095Z,37.88
2018-05-09T19:29:13.396Z,37.88
2018-05-09T19:32:16.969Z,40.06
2018-05-09T19:35:20.312Z,40.49
2018-05-09T19:38:23.735Z,40.98
2018-05-09T19:41:26.999Z,40.89
2018-05-09T19:44:31.689Z,41.01
2018-05-09T19:47:35.072Z,41.46
2018-05-09T19:50:38.393Z,41.59
2018-05-09T19:53:41.774Z,42.62
2018-05-09T19:56:46.132Z,42.55
2018-05-09T19:59:49.328Z,42.61
2018-05-09T20:02:53.293Z,42.86
2018-05-09T20:05:56.876Z,43.26
2018-05-09T20:09:01.385Z,44.01
2018-05-09T20:12:05.678Z,44.52
2018-05-09T20:15:09.280Z,44.68
2018-05-09T20:18:12.544Z,44.84
2018-05-09T20:21:15.922Z,45.16
2018-05-09T20:24:19.433Z,45.48
2018-05-09T20:27:22.932Z,45.62
2018-05-09T20:30:30.260Z,45.85
2018-05-09T20:33:33.557Z,45.53
2018-05-09T20:36:36.756Z,45.78
2018-05-09T20:39:40.164Z,46.37
2018-05-09T20:42:43.561Z,46.12
2018-05-09T20:45:46.945Z,46.51
2018-05-09T20:48:51.007Z,46.84
2018-05-09T20:51:54.399Z,46.86
2018-05-09T20:54:57.814Z,47.18
2018-05-09T20:58:01.163Z,46.66
2018-05-09T21:01:14.499Z,44.80
2018-05-09T21:04:17.900Z,44.38
2018-05-09T21:07:21.917Z,43.49
2018-05-09T21:10:25.294Z,42.83
2018-05-09T21:13:28.516Z,41.98
2018-05-09T21:16:31.961Z,41.71
2018-05-09T21:19:35.384Z,41.70
2018-05-09T21:22:38.734Z,40.82
2018-05-09T21:25:42.091Z,41.30
2018-05-09T21:28:45.411Z,41.31
2018-05-09T21:31:49.410Z,45.34
2018-05-09T21:34:52.828Z,46.71
2018-05-09T21:37:56.210Z,47.36
2018-05-09T21:41:02.000Z,48.38
2018-05-09T21:44:05.411Z,49.01
2018-05-09T21:47:08.930Z,49.33
2018-05-09T21:50:12.330Z,48.77
2018-05-09T21:53:15.664Z,49.01
2018-05-09T21:56:19.442Z,48.73
2018-05-09T21:59:22.581Z,48.13
2018-05-09T22:02:25.988Z,48.09
2018-05-09T22:05:29.369Z,47.43
2018-05-09T22:08:32.723Z,47.65
2018-05-09T22:11:36.123Z,47.30
2018-05-09T22:14:39.497Z,47.29
2018-05-09T22:17:42.871Z,47.85
2018-05-09T22:20:46.062Z,47.78
2018-05-09T22:23:50.348Z,48.07
2018-05-09T22:26:53.748Z,49.15
2018-05-09T22:29:57.074Z,48.24
2018-05-09T22:33:00.472Z,48.51
2018-05-09T22:36:03.784Z,49.75
2018-05-09T22:39:07.170Z,48.67
2018-05-09T22:42:10.511Z,48.87
2018-05-09T22:45:13.771Z,49.31
2018-05-09T22:48:16.972Z,49.92
2018-05-09T22:51:21.230Z,49.21
2018-05-09T22:54:24.524Z,49.56
2018-05-09T22:57:27.883Z,47.82
2018-05-09T23:00:31.124Z,46.56
2018-05-09T23:03:34.467Z,46.34
2018-05-09T23:06:38.743Z,46.02
2018-05-09T23:09:42.058Z,44.91
2018-05-09T23:12:46.341Z,45.48
2018-05-09T23:15:50.527Z,45.12
2018-05-09T23:18:53.822Z,45.01
2018-05-09T23:21:57.136Z,44.68
2018-05-09T23:25:00.380Z,44.41
2018-05-09T23:28:03.655Z,44.01
2018-05-09T23:31:07.027Z,44.33
2018-05-09T23:34:10.434Z,44.63
2018-05-09T23:37:14.728Z,45.83
2018-05-09T23:40:18.145Z,47.63
2018-05-09T23:43:22.796Z,49.34
2018-05-09T23:46:26.208Z,50.63
2018-05-09T23:49:29.531Z,49.67
2018-05-09T23:52:33.836Z,49.38
2018-05-09T23:55:37.277Z,50.08
2018-05-09T23:58:40.419Z,50.03
